Time;durP1;ratioP1;P1;durP2;ratioP2;P2;SDS_P1;SDS_P2;PMS_P1;PMS_P2;Temp;Humidity;BMP_temperature;BMP_pressure;BME280_temperature;BME280_humidity;BME280_pressure;Samples;Min_cycle;Max_cycle;Signal;HPM_P1;HPM_P2
2022/03/15 00:02:23;;;;;;;22.90;17.70;;;;;;;6.88;83.32;102627.47;5258477;28;20025;-77
2022/03/15 00:04:55;;;;;;;21.20;16.48;;;;;;;6.88;83.67;102630.06;5258514;28;20518;-78
2022/03/15 00:07:27;;;;;;;24.50;18.23;;;;;;;6.74;83.68;102633.91;5258599;28;20033;-79
2022/03/15 00:10:00;;;;;;;27.00;18.60;;;;;;;6.73;83.78;102630.44;5258947;28;20400;-76
2022/03/15 00:12:34;;;;;;;27.38;18.05;;;;;;;6.63;83.89;102625.78;5258556;28;20056;-73
2022/03/15 00:15:09;;;;;;;23.02;19.08;;;;;;;6.58;84.33;102627.34;5258372;28;20032;-78
2022/03/15 00:17:42;;;;;;;26.48;18.30;;;;;;;6.54;84.34;102630.69;5258345;28;20052;-76
2022/03/15 00:20:18;;;;;;;32.53;20.50;;;;;;;6.52;84.67;102624.53;5258305;28;20050;-78
2022/03/15 00:22:51;;;;;;;26.98;17.45;;;;;;;6.64;84.26;102622.38;5258127;28;20494;-80
2022/03/15 00:25:23;;;;;;;;;;;;;;;6.67;82.99;102621.59;5259066;28;20435;-79
2022/03/15 00:27:55;;;;;;;24.95;16.95;;;;;;;6.52;83.58;102617.66;5258564;28;19916;-76
2022/03/15 00:30:28;;;;;;;27.88;18.15;;;;;;;6.50;84.14;102629.66;5258606;28;20472;-77
2022/03/15 00:32:59;;;;;;;31.63;18.40;;;;;;;6.39;84.85;102618.97;5258230;28;20060;-79
2022/03/15 00:35:32;;;;;;;26.00;17.50;;;;;;;6.46;85.11;102621.78;5258657;28;20529;-78
2022/03/15 00:38:03;;;;;;;24.80;17.58;;;;;;;6.51;84.78;102625.38;5257930;28;20052;-78
2022/03/15 00:40:35;;;;;;;23.97;17.67;;;;;;;6.53;84.78;102629.78;5258412;28;20163;-78
2022/03/15 00:43:06;;;;;;;28.03;17.90;;;;;;;6.50;84.52;102632.25;5257346;28;20094;-78
2022/03/15 00:45:37;;;;;;;26.80;18.60;;;;;;;6.49;84.90;102625.34;5258473;28;20028;-77
2022/03/15 00:48:09;;;;;;;27.50;18.77;;;;;;;6.50;84.55;102621.03;5258312;28;20032;-80
2022/03/15 00:50:41;;;;;;;28.80;17.87;;;;;;;6.48;84.63;102618.38;5240104;28;20124;-75
2022/03/15 00:53:13;;;;;;;28.60;19.33;;;;;;;6.45;84.62;102615.69;5260139;28;20037;-76
2022/03/15 00:55:45;;;;;;;25.03;17.47;;;;;;;6.49;84.78;102614.97;5246001;28;20025;-75
2022/03/15 00:58:16;;;;;;;24.48;19.48;;;;;;;6.44;84.86;102606.19;5260405;28;20033;-80
2022/03/15 01:00:48;;;;;;;27.43;19.40;;;;;;;6.42;85.00;102607.81;5260717;28;20040;-76
2022/03/15 01:03:19;;;;;;;33.73;19.20;;;;;;;6.45;85.15;102609.63;5258701;28;20035;-76
2022/03/15 01:05:51;;;;;;;23.47;17.77;;;;;;;6.48;84.96;102609.75;5258689;28;20025;-81
2022/03/15 01:08:24;;;;;;;28.50;17.93;;;;;;;6.52;84.61;102607.31;5257755;28;20067;-75
2022/03/15 01:10:57;;;;;;;25.98;17.75;;;;;;;6.49;84.37;102608.91;5257085;28;20115;-79
2022/03/15 01:13:29;;;;;;;30.67;17.27;;;;;;;6.46;84.53;102609.69;5257426;28;20057;-80
2022/03/15 01:16:00;;;;;;;27.90;18.23;;;;;;;6.46;84.17;102611.41;5257210;28;20466;-79
2022/03/15 01:18:32;;;;;;;23.50;16.50;;;;;;;6.49;84.03;102612.38;5257401;28;20082;-75
2022/03/15 01:21:03;;;;;;;28.93;17.07;;;;;;;6.49;83.89;102620.16;5257303;28;20037;-75
2022/03/15 01:23:35;;;;;;;21.10;17.17;;;;;;;6.44;83.51;102613.03;5257071;28;20396;-77
2022/03/15 01:26:06;;;;;;;26.37;15.97;;;;;;;6.44;83.84;102608.75;5257188;28;20090;-77
2022/03/15 01:28:38;;;;;;;25.77;15.37;;;;;;;6.42;83.78;102606.94;5257224;28;20135;-75
2022/03/15 01:31:11;;;;;;;24.93;15.57;;;;;;;6.33;84.11;102604.94;5257371;28;21001;-74
2022/03/15 01:33:42;;;;;;;22.95;14.63;;;;;;;6.27;84.20;102586.59;5255920;28;20049;-76
2022/03/15 01:36:13;;;;;;;20.77;14.73;;;;;;;6.23;84.42;102582.13;5257104;28;20031;-76
2022/03/15 01:38:45;;;;;;;21.87;15.40;;;;;;;6.20;84.84;102583.78;5257750;28;20039;-75
2022/03/15 01:41:17;;;;;;;19.40;14.77;;;;;;;6.22;84.55;102581.25;5256843;28;20108;-79
2022/03/15 01:43:48;;;;;;;23.83;14.97;;;;;;;6.23;84.63;102579.53;5256780;28;20037;-74
2022/03/15 01:46:20;;;;;;;25.40;16.00;;;;;;;6.14;84.75;102580.97;5256777;28;20032;-75
2022/03/15 01:48:51;;;;;;;22.77;14.63;;;;;;;6.17;84.87;102578.50;5256958;28;20025;-74
2022/03/15 01:51:22;;;;;;;28.20;14.47;;;;;;;6.09;84.86;102581.66;5256647;28;20029;-76
2022/03/15 01:53:54;;;;;;;20.90;14.37;;;;;;;6.06;84.44;102576.38;5255796;28;20040;-79
2022/03/15 01:56:25;;;;;;;20.43;14.83;;;;;;;6.14;84.39;102577.53;5256419;28;20024;-77
2022/03/15 01:58:57;;;;;;;27.50;15.33;;;;;;;6.15;84.10;102569.81;5256787;28;20438;-74
2022/03/15 02:01:29;;;;;;;24.37;14.07;;;;;;;6.25;84.28;102570.09;5256858;28;20029;-78
2022/03/15 02:04:00;;;;;;;21.42;13.45;;;;;;;6.22;83.86;102576.06;5256987;28;20021;-76
2022/03/15 02:06:39;;;;;;;25.80;14.33;;;;;;;6.23;83.69;102572.66;5256624;28;20151;-79
2022/03/15 02:09:12;;;;;;;22.60;14.88;;;;;;;6.24;83.64;102573.53;5256788;28;20121;-79
2022/03/15 02:11:44;;;;;;;23.33;14.65;;;;;;;6.23;83.30;102567.47;5257082;28;20075;-74
2022/03/15 02:14:15;;;;;;;20.73;13.77;;;;;;;6.24;83.74;102571.81;5256886;28;20091;-78
2022/03/15 02:16:47;;;;;;;21.67;13.80;;;;;;;6.23;83.87;102569.16;5257610;28;20051;-75
2022/03/15 02:19:18;;;;;;;23.93;14.70;;;;;;;6.20;83.97;102562.19;5257279;28;20081;-75
2022/03/15 02:21:50;;;;;;;22.00;13.90;;;;;;;6.13;83.69;102552.44;5257748;28;20028;-79
2022/03/15 02:24:22;;;;;;;21.90;13.95;;;;;;;6.10;84.66;102542.88;5257062;28;20044;-78
2022/03/15 02:26:54;;;;;;;20.30;13.83;;;;;;;6.09;84.37;102551.47;5257126;28;20087;-79
2022/03/15 02:29:25;;;;;;;19.73;14.27;;;;;;;6.04;84.60;102542.66;5257329;28;20033;-79
2022/03/15 02:31:58;;;;;;;22.97;14.37;;;;;;;6.00;84.51;102540.78;5257144;28;20100;-78
2022/03/15 02:34:30;;;;;;;21.70;13.80;;;;;;;6.01;84.47;102539.97;5257429;28;20357;-78
2022/03/15 02:37:01;;;;;;;23.90;12.90;;;;;;;6.03;84.54;102535.72;5256858;28;20107;-72
2022/03/15 02:39:33;;;;;;;16.90;14.10;;;;;;;6.05;84.45;102535.78;5257780;28;20493;-76
2022/03/15 02:42:04;;;;;;;23.13;13.97;;;;;;;6.05;84.49;102536.66;5257082;28;20475;-80
2022/03/15 02:44:36;;;;;;;22.57;13.77;;;;;;;6.02;84.62;102541.72;5257754;28;20075;-80
2022/03/15 02:47:07;;;;;;;21.37;13.80;;;;;;;6.00;84.66;102538.19;5256889;28;20039;-73
2022/03/15 02:49:39;;;;;;;23.07;14.03;;;;;;;5.97;85.06;102535.50;5239201;28;20506;-77
2022/03/15 02:52:10;;;;;;;21.73;13.73;;;;;;;5.95;85.31;102531.97;5256212;28;20388;-76
2022/03/15 02:54:41;;;;;;;19.37;14.07;;;;;;;5.82;85.21;102536.69;5256096;28;20040;-78
2022/03/15 02:57:13;;;;;;;21.77;15.37;;;;;;;5.83;85.78;102522.94;5255603;28;20056;-78
2022/03/15 02:59:44;;;;;;;19.43;13.37;;;;;;;5.80;85.98;102522.84;5255647;28;20021;-75
2022/03/15 03:02:16;;;;;;;22.60;13.93;;;;;;;5.74;86.07;102527.78;5256115;28;20060;-77
2022/03/15 03:04:47;;;;;;;23.00;14.90;;;;;;;5.78;86.16;102515.81;5256003;28;20033;-75
2022/03/15 03:07:19;;;;;;;22.67;13.77;;;;;;;5.77;85.90;102503.75;5259901;28;20029;-80
2022/03/15 03:09:50;;;;;;;20.80;13.57;;;;;;;5.79;86.20;102496.91;5259686;28;20037;-80
2022/03/15 03:12:22;;;;;;;24.10;14.10;;;;;;;5.78;85.89;102496.03;5259718;28;20443;-75
2022/03/15 03:14:55;;;;;;;19.17;13.02;;;;;;;5.78;85.50;102488.25;5259264;28;20064;-81
2022/03/15 03:17:28;;;;;;;21.85;12.88;;;;;;;5.83;85.09;102497.06;5260227;28;20077;-74
2022/03/15 03:19:59;;;;;;;22.35;13.25;;;;;;;5.81;85.02;102487.47;5259611;28;20028;-79
2022/03/15 03:22:30;;;;;;;19.87;12.93;;;;;;;5.80;85.24;102490.91;5259586;28;20036;-78
2022/03/15 03:25:04;;;;;;;21.77;13.50;;;;;;;5.78;85.30;102489.94;5259132;28;20041;-75
2022/03/15 03:27:35;;;;;;;21.80;14.80;;;;;;;5.73;85.56;102486.34;5259823;28;20032;-79
2022/03/15 03:30:08;;;;;;;24.30;14.73;;;;;;;5.74;86.19;102486.38;5259203;28;20480;-75
2022/03/15 03:32:40;;;;;;;20.80;13.52;;;;;;;5.70;86.11;102483.63;5259566;28;20481;-80
2022/03/15 03:35:11;;;;;;;20.20;13.27;;;;;;;5.71;86.39;102482.81;5259362;28;20100;-76
2022/03/15 03:37:42;;;;;;;22.20;13.03;;;;;;;5.73;86.12;102482.06;5259799;28;20029;-74
2022/03/15 03:40:14;;;;;;;23.77;12.43;;;;;;;5.71;85.22;102475.06;5260657;28;20033;-76
2022/03/15 03:42:45;;;;;;;20.07;12.47;;;;;;;5.74;85.07;102480.34;5258523;28;20045;-79
2022/03/15 03:45:17;;;;;;;21.70;12.53;;;;;;;5.72;85.31;102482.88;5258736;28;20032;-78
2022/03/15 03:47:48;;;;;;;19.27;14.17;;;;;;;5.73;84.61;102486.34;5259410;28;20040;-74
2022/03/15 03:50:20;;;;;;;17.83;11.27;;;;;;;5.69;84.65;102484.47;5258882;28;20449;-74
2022/03/15 03:52:52;;;;;;;22.92;12.30;;;;;;;5.69;84.81;102477.59;5258952;28;20480;-74
2022/03/15 03:55:23;;;;;;;20.60;14.13;;;;;;;5.61;85.19;102482.50;5257778;28;20057;-76
2022/03/15 03:57:55;;;;;;;22.17;13.63;;;;;;;5.65;85.72;102476.63;5240825;28;20036;-74
2022/03/15 04:00:27;;;;;;;23.47;14.13;;;;;;;5.62;85.91;102473.91;5258609;28;20584;-74
2022/03/15 04:03:00;;;;;;;21.77;12.53;;;;;;;5.54;85.56;102470.19;5258890;28;20025;-73
2022/03/15 04:05:33;;;;;;;19.73;13.07;;;;;;;5.53;85.81;102472.72;5258456;28;20108;-78
2022/03/15 04:08:05;;;;;;;21.33;13.43;;;;;;;5.51;86.75;102479.56;5258806;28;20057;-78
2022/03/15 04:10:37;;;;;;;24.45;13.15;;;;;;;5.44;86.82;102471.56;5258206;28;20507;-74
2022/03/15 04:13:10;;;;;;;19.80;13.25;;;;;;;5.48;86.76;102485.47;5262305;28;20049;-73
2022/03/15 04:15:41;;;;;;;24.30;13.25;;;;;;;5.43;86.53;102485.31;5265789;28;20906;-74
2022/03/15 04:18:13;;;;;;;18.07;12.83;;;;;;;5.38;86.72;102484.28;5265568;28;20113;-75
2022/03/15 04:20:44;;;;;;;24.27;14.32;;;;;;;5.35;86.65;102478.13;5261373;28;20070;-77
2022/03/15 04:23:16;;;;;;;19.60;12.13;;;;;;;5.38;86.61;102489.44;5260233;28;20416;-78
2022/03/15 04:25:51;;;;;;;29.07;13.90;;;;;;;5.40;86.76;102487.78;5258656;28;20051;-74
2022/03/15 04:28:22;;;;;;;21.30;13.52;;;;;;;5.42;86.45;102483.53;5240963;28;20029;-75
2022/03/15 04:30:53;;;;;;;23.10;13.27;;;;;;;5.43;86.30;102484.44;5257877;28;20387;-74
2022/03/15 04:33:25;;;;;;;20.67;13.10;;;;;;;5.44;86.20;102487.09;5258195;28;20025;-78
2022/03/15 04:35:57;;;;;;;18.37;11.73;;;;;;;5.42;86.47;102487.84;5258402;28;20028;-80
2022/03/15 04:38:28;;;;;;;19.47;12.77;;;;;;;5.46;86.24;102487.16;5258521;28;20267;-75
2022/03/15 04:41:00;;;;;;;21.67;12.43;;;;;;;5.46;86.23;102482.84;5258333;28;20120;-76
2022/03/15 04:43:32;;;;;;;20.03;13.77;;;;;;;5.48;86.03;102481.19;5258509;28;20033;-77
2022/03/15 04:46:03;;;;;;;20.13;12.25;;;;;;;5.45;86.34;102475.91;5257678;28;20121;-73
2022/03/15 04:48:36;;;;;;;20.20;11.63;;;;;;;5.48;86.20;102475.13;5258234;28;20523;-79
2022/03/15 04:51:08;;;;;;;;;;;;;;;5.46;85.54;102476.81;5258979;28;20025;-78
2022/03/15 04:53:40;;;;;;;19.45;12.45;;;;;;;5.44;85.92;102468.97;5257949;28;19967;-74
2022/03/15 04:56:11;;;;;;;17.97;11.50;;;;;;;5.44;86.05;102476.75;5258598;28;20025;-79
2022/03/15 04:58:43;;;;;;;20.30;12.33;;;;;;;5.43;86.14;102458.59;5258066;28;20033;-80
2022/03/15 05:01:14;;;;;;;17.90;11.53;;;;;;;5.45;86.51;102462.97;5257467;28;20028;-80
2022/03/15 05:03:46;;;;;;;16.23;10.30;;;;;;;5.41;86.54;102460.22;5257757;28;20024;-78
2022/03/15 05:06:17;;;;;;;20.27;12.30;;;;;;;5.44;86.27;102458.63;5239613;28;20025;-75
2022/03/15 05:08:48;;;;;;;16.80;11.77;;;;;;;5.44;86.34;102450.88;5258250;28;20032;-73
2022/03/15 05:11:20;;;;;;;17.27;12.00;;;;;;;5.40;86.58;102446.41;5257213;28;20029;-76
2022/03/15 05:13:52;;;;;;;19.40;11.83;;;;;;;5.37;86.47;102445.44;5257686;28;20033;-79
2022/03/15 05:16:23;;;;;;;27.40;12.73;;;;;;;5.37;87.17;102448.88;5257119;28;20031;-75
2022/03/15 05:18:57;;;;;;;28.90;12.57;;;;;;;5.29;86.88;102450.31;5258022;28;20059;-75
2022/03/15 05:21:30;;;;;;;24.48;11.57;;;;;;;5.27;87.72;102449.41;5258277;28;20132;-74
2022/03/15 05:24:02;;;;;;;19.75;12.05;;;;;;;5.29;87.38;102451.19;5259986;28;20178;-83
2022/03/15 05:26:33;;;;;;;19.87;12.67;;;;;;;5.30;87.24;102455.56;5259728;28;20029;-84
2022/03/15 05:29:05;;;;;;;18.93;11.53;;;;;;;5.32;87.14;102452.16;5241520;28;20044;-84
2022/03/15 05:31:36;;;;;;;23.47;12.47;;;;;;;5.28;86.91;102457.22;5259098;28;20036;-82
2022/03/15 05:34:07;;;;;;;20.60;11.77;;;;;;;5.31;87.82;102456.41;5259796;28;20029;-74
2022/03/15 05:36:39;;;;;;;18.77;12.33;;;;;;;5.26;87.94;102448.53;5259149;28;20100;-76
2022/03/15 05:39:12;;;;;;;21.63;13.20;;;;;;;5.24;87.92;102439.81;5259770;28;20040;-73
2022/03/15 05:41:43;;;;;;;19.80;11.98;;;;;;;5.19;87.87;102435.31;5222808;28;20032;-84
2022/03/15 05:44:15;;;;;;;21.37;12.33;;;;;;;5.14;87.88;102431.69;5257290;28;20142;-82
2022/03/15 05:46:46;;;;;;;19.57;11.77;;;;;;;5.13;87.99;102432.50;5256036;28;20049;-80
2022/03/15 05:49:18;;;;;;;21.87;12.27;;;;;;;5.13;88.06;102432.50;5258034;28;20449;-74
2022/03/15 05:51:49;;;;;;;21.27;10.67;;;;;;;5.14;88.30;102423.94;5239932;28;20048;-77
2022/03/15 05:54:20;;;;;;;19.50;11.93;;;;;;;5.04;88.25;102426.19;5257840;28;20028;-81
2022/03/15 05:56:52;;;;;;;18.63;12.30;;;;;;;5.07;87.97;102420.22;5258054;28;20480;-84
2022/03/15 05:59:23;;;;;;;22.37;12.27;;;;;;;5.11;88.26;102422.97;5239938;28;20041;-75
2022/03/15 06:01:57;;;;;;;20.23;12.60;;;;;;;5.08;88.55;102417.69;5257247;28;20054;-79
2022/03/15 06:04:28;;;;;;;21.90;11.73;;;;;;;5.01;88.40;102426.06;5239518;28;20029;-77
2022/03/15 06:07:01;;;;;;;20.23;11.83;;;;;;;4.99;88.29;102427.72;5256341;28;20028;-85
2022/03/15 06:09:32;;;;;;;18.80;11.25;;;;;;;5.03;88.23;102423.53;5238355;28;20070;-76
2022/03/15 06:12:04;;;;;;;16.17;11.77;;;;;;;5.05;88.69;102422.75;5255862;28;20076;-78
2022/03/15 06:14:36;;;;;;;18.95;10.80;;;;;;;5.08;88.57;102422.88;5258320;28;20627;-76
2022/03/15 06:43:59;;;;;;;19.02;12.50;;;;;;;5.43;85.53;102410.31;4776020;22;20056;-74
2022/03/15 06:46:31;;;;;;;18.83;12.87;;;;;;;5.47;85.44;102414.78;5281423;28;20048;-78
2022/03/15 06:49:04;;;;;;;22.05;11.85;;;;;;;5.49;85.27;102401.91;5281176;28;20067;-75
2022/03/15 06:51:35;;;;;;;17.08;12.20;;;;;;;5.54;84.92;102402.94;5280644;28;20028;-75
2022/03/15 06:54:07;;;;;;;21.20;12.47;;;;;;;5.58;84.93;102401.31;5280294;28;20035;-79
2022/03/15 06:56:39;;;;;;;24.03;12.17;;;;;;;5.62;84.41;102398.03;5281013;28;20105;-74
2022/03/15 06:59:11;;;;;;;17.52;11.25;;;;;;;5.63;84.28;102385.09;5279881;28;20467;-74
2022/03/15 07:01:42;;;;;;;22.10;11.40;;;;;;;5.72;84.25;102392.31;5280104;28;20078;-74
2022/03/15 07:04:13;;;;;;;21.77;11.13;;;;;;;5.73;83.62;102388.91;5261547;28;20050;-76
2022/03/15 07:06:45;;;;;;;18.10;11.43;;;;;;;5.80;82.90;102390.84;5279693;28;20037;-74
2022/03/15 07:09:18;;;;;;;19.17;10.63;;;;;;;5.82;82.92;102393.50;5280474;28;20471;-74
2022/03/15 07:11:50;;;;;;;15.65;9.93;;;;;;;5.86;82.58;102395.38;5279651;28;20064;-78
2022/03/15 07:14:22;;;;;;;19.97;9.53;;;;;;;5.93;81.80;102392.13;5280357;28;20059;-77
2022/03/15 07:16:53;;;;;;;19.17;9.47;;;;;;;5.98;81.65;102384.53;5280837;28;20060;-79
2022/03/15 07:19:24;;;;;;;18.80;10.00;;;;;;;6.05;81.30;102383.91;5281046;28;20383;-75
2022/03/15 07:21:56;;;;;;;21.93;9.43;;;;;;;6.07;81.24;102387.44;5263614;28;20430;-76
2022/03/15 07:24:27;;;;;;;17.47;9.33;;;;;;;6.14;81.20;102386.78;5265155;28;20028;-74
2022/03/15 07:26:59;;;;;;;22.43;9.80;;;;;;;6.17;80.15;102386.88;5266930;28;20134;-74
2022/03/15 07:29:31;;;;;;;20.48;9.48;;;;;;;6.17;79.90;102380.84;5269408;28;20368;-75
2022/03/15 07:32:05;;;;;;;19.73;9.83;;;;;;;6.23;80.02;102381.03;5268705;28;20082;-75
2022/03/15 07:34:37;;;;;;;22.67;9.23;;;;;;;6.28;79.82;102386.31;5285168;28;20226;-75
2022/03/15 12:41:36;;;;;;;9.02;3.83;;;;;;;13.20;55.12;102146.41;5257604;28;20548;-86
2022/03/15 12:44:08;;;;;;;7.63;3.55;;;;;;;12.93;55.07;102144.69;5259211;28;20475;-83
2022/03/15 12:46:42;;;;;;;8.95;3.90;;;;;;;12.84;55.49;102137.69;5240964;28;20033;-83
2022/03/15 12:49:18;;;;;;;9.20;4.43;;;;;;;12.66;55.52;102137.72;5240393;28;20032;-84
2022/03/15 12:51:51;;;;;;;9.05;4.00;;;;;;;12.68;56.15;102128.97;5258773;28;20036;-80
2022/03/15 12:54:26;;;;;;;13.13;6.88;;;;;;;12.57;56.46;102135.94;5258713;28;20052;-77
2022/03/15 12:57:09;;;;;;;9.32;4.20;;;;;;;12.66;56.86;102128.13;5258159;28;20122;-76
2022/03/15 12:59:40;;;;;;;10.82;3.95;;;;;;;12.64;55.53;102129.88;5258701;28;20025;-82
2022/03/15 13:02:16;;;;;;;8.40;3.87;;;;;;;12.72;56.01;102127.25;5258391;28;20040;-83
2022/03/15 13:04:47;;;;;;;8.60;3.90;;;;;;;12.65;55.42;102128.13;5258593;28;20480;-79
2022/03/15 13:07:29;;;;;;;10.77;4.07;;;;;;;12.67;56.22;102121.13;5240872;28;20037;-82
2022/03/15 13:10:00;;;;;;;8.98;4.82;;;;;;;12.56;56.35;102123.75;5223829;28;20037;-85
2022/03/15 13:12:32;;;;;;;10.43;3.67;;;;;;;12.38;55.89;102128.09;5257794;28;20032;-86
2022/03/15 13:15:05;;;;;;;10.65;4.00;;;;;;;12.44;56.50;102128.97;5240533;28;20025;-77
2022/03/15 13:17:46;;;;;;;5.90;3.45;;;;;;;12.47;56.65;102126.38;5258218;28;20384;-83
2022/03/15 13:20:35;;;;;;;11.35;3.80;;;;;;;12.50;57.41;102121.16;5257834;28;20388;-81
2022/03/15 13:23:08;;;;;;;8.35;3.28;;;;;;;12.63;56.15;102115.03;5258010;28;20044;-81
2022/03/15 13:25:47;;;;;;;6.57;3.15;;;;;;;12.61;56.66;102108.09;5257871;28;20025;-82
2022/03/15 13:28:24;;;;;;;8.25;3.75;;;;;;;12.71;55.85;102099.34;5258036;28;20197;-76
2022/03/15 13:31:04;;;;;;;6.57;3.10;;;;;;;12.82;55.78;102102.81;5257853;28;20028;-84
2022/03/15 13:33:38;;;;;;;5.72;3.60;;;;;;;12.88;55.85;102101.94;5240198;28;20029;-80
2022/03/15 13:36:14;;;;;;;8.57;3.28;;;;;;;12.87;55.40;102103.69;5257640;28;20083;-82
2022/03/15 13:38:48;;;;;;;6.78;3.30;;;;;;;12.72;55.57;102107.19;5258042;28;20379;-84
2022/03/15 13:41:23;;;;;;;6.38;3.22;;;;;;;12.85;55.50;102102.81;5239811;28;20462;-83
2022/03/15 13:43:56;;;;;;;7.53;3.35;;;;;;;12.66;55.70;102096.72;5258957;28;20444;-76
2022/03/15 13:46:29;;;;;;;7.40;3.17;;;;;;;12.76;56.05;102098.44;5260989;28;20033;-83
2022/03/15 13:49:01;;;;;;;6.13;2.40;;;;;;;12.90;55.56;102105.44;5263743;28;20048;-73
2022/03/15 13:51:39;;;;;;;10.63;3.43;;;;;;;12.97;55.43;102107.16;5270441;28;20033;-84
2022/03/15 13:54:14;;;;;;;5.78;3.00;;;;;;;13.06;55.74;102108.91;5270221;28;20040;-84
2022/03/15 13:56:54;;;;;;;4.90;2.53;;;;;;;13.12;55.10;102109.75;5269686;28;20059;-79
2022/03/15 13:59:27;;;;;;;7.60;3.85;;;;;;;13.08;55.15;102117.63;5262765;28;20029;-75
2022/03/15 14:02:01;;;;;;;8.80;3.10;;;;;;;13.06;55.26;102111.53;5260521;28;20028;-78
2022/03/15 14:04:34;;;;;;;5.75;2.80;;;;;;;13.07;55.40;102119.38;5259148;28;20029;-83
2022/03/15 14:07:07;;;;;;;;;;;;;;;13.37;55.64;102117.56;5258883;28;20029;-77
2022/03/15 14:09:41;;;;;;;6.40;2.80;;;;;;;13.05;54.59;102120.25;5257546;28;20102;-80
2022/03/15 14:12:17;;;;;;;6.45;3.35;;;;;;;12.84;55.29;102134.22;5257719;28;20156;-80
2022/03/15 14:14:51;;;;;;;11.85;2.90;;;;;;;12.76;56.89;102123.75;5257371;28;20089;-79
2022/03/15 14:17:31;;;;;;;5.38;2.70;;;;;;;12.85;55.94;102123.75;5256793;28;20116;-76
2022/03/15 14:20:13;;;;;;;11.27;2.95;;;;;;;12.76;56.16;102115.91;5256884;28;20492;-76
2022/03/15 14:22:52;;;;;;;9.52;3.25;;;;;;;12.54;56.20;102104.56;5257708;28;20063;-74
2022/03/15 14:25:32;;;;;;;9.45;3.67;;;;;;;12.58;57.52;102108.94;5256896;28;20043;-84
2022/03/15 14:28:09;;;;;;;7.82;3.38;;;;;;;12.46;57.79;102103.69;5257012;28;20177;-76
2022/03/15 14:30:40;;;;;;;8.38;2.55;;;;;;;12.39;57.89;102094.97;5240175;28;20037;-83
2022/03/15 14:33:16;;;;;;;10.40;3.63;;;;;;;12.35;57.67;102096.72;5239202;28;20032;-78
2022/03/15 14:35:49;;;;;;;6.72;2.90;;;;;;;12.48;57.57;102087.13;5256874;28;20036;-76
2022/03/15 14:38:21;;;;;;;9.75;2.35;;;;;;;12.56;57.36;102085.41;5258741;28;20131;-77
2022/03/15 14:40:55;;;;;;;7.40;3.28;;;;;;;12.66;57.33;102094.09;5239536;28;20040;-80
2022/03/15 14:43:30;;;;;;;13.73;4.20;;;;;;;12.62;56.55;102089.75;5255739;28;20060;-85
2022/03/15 14:46:06;;;;;;;8.52;3.22;;;;;;;12.61;56.39;102095.88;5256628;28;20388;-75
2022/03/15 14:48:38;;;;;;;7.20;3.30;;;;;;;12.61;56.57;102092.38;5255938;28;20028;-76
2022/03/15 14:51:10;;;;;;;6.25;3.47;;;;;;;12.75;56.20;102085.38;5256041;28;20550;-81
2022/03/15 14:53:42;;;;;;;7.35;3.70;;;;;;;12.75;56.57;102082.75;5256036;28;20033;-77
2022/03/15 14:56:15;;;;;;;8.27;2.83;;;;;;;12.81;56.42;102084.50;5256151;28;20117;-76
2022/03/15 14:58:46;;;;;;;;;;;;;;;13.18;56.47;102084.44;5256622;28;20855;-83
2022/03/15 15:01:18;;;;;;;5.32;2.95;;;;;;;12.82;56.91;102079.28;5257187;28;19923;-76
2022/03/15 15:03:51;;;;;;;11.53;3.43;;;;;;;13.09;56.35;102078.34;5259379;28;20029;-74
2022/03/15 15:06:23;;;;;;;8.35;3.00;;;;;;;13.21;55.51;102084.44;5259167;28;20421;-76
2022/03/15 15:08:56;;;;;;;8.43;2.70;;;;;;;13.31;54.91;102081.78;5259880;28;20476;-74
2022/03/15 15:11:29;;;;;;;6.05;2.72;;;;;;;13.40;54.61;102080.03;5241802;28;20754;-80
2022/03/15 15:14:03;;;;;;;5.20;2.50;;;;;;;13.45;54.75;102084.38;5259991;28;20033;-80
2022/03/15 15:16:40;;;;;;;7.55;2.70;;;;;;;13.57;54.60;102078.22;5259302;28;20107;-77
2022/03/15 15:19:11;;;;;;;5.80;2.30;;;;;;;13.82;54.00;102080.72;5259090;28;20029;-79
2022/03/15 15:21:43;;;;;;;44.37;36.83;;;;;;;13.98;53.33;102081.50;5258912;28;20503;-78
2022/03/15 15:24:16;;;;;;;11.77;8.03;;;;;;;14.40;53.00;102092.56;5240978;28;20029;-79
2022/03/15 15:26:51;;;;;;;15.90;8.98;;;;;;;14.15;54.15;102086.59;5257970;28;20136;-75
2022/03/15 15:29:22;;;;;;;8.25;3.53;;;;;;;14.50;52.58;102085.47;5256582;28;20108;-74
2022/03/15 15:31:54;;;;;;;5.77;2.57;;;;;;;14.62;51.48;102092.41;5258831;28;20051;-74
2022/03/15 15:34:27;;;;;;;7.57;3.20;;;;;;;14.83;50.41;102083.44;5224754;28;20029;-74
2022/03/15 15:37:02;;;;;;;5.63;2.13;;;;;;;14.80;50.42;102084.38;5258292;28;20065;-74
2022/03/15 15:39:33;;;;;;;7.30;2.58;;;;;;;14.75;50.89;102076.53;5258754;28;20055;-74
2022/03/15 15:42:14;;;;;;;8.37;2.63;;;;;;;14.99;50.82;102074.56;5259444;28;20080;-78
2022/03/15 15:44:46;;;;;;;5.88;3.00;;;;;;;14.70;50.64;102077.44;5258514;28;20086;-73
2022/03/15 15:47:25;;;;;;;4.65;2.65;;;;;;;14.76;50.82;102078.28;5240301;28;20484;-75
2022/03/15 15:49:57;;;;;;;7.32;2.88;;;;;;;15.06;50.70;102075.38;5239416;28;20025;-74
2022/03/15 15:52:29;;;;;;;5.18;2.55;;;;;;;15.28;49.62;102068.97;5258122;28;20037;-75
2022/03/15 15:55:00;;;;;;;6.57;3.00;;;;;;;15.19;49.51;102070.84;5258175;28;20496;-76
2022/03/15 15:57:31;;;;;;;12.87;4.40;;;;;;;15.25;50.83;102071.63;5240430;28;20031;-74
2022/03/15 16:00:06;;;;;;;4.77;2.80;;;;;;;15.83;48.67;102077.06;5257628;28;20425;-74
2022/03/15 16:02:39;;;;;;;2.45;2.03;;;;;;;17.40;45.54;102077.00;5256010;28;20017;-76
2022/03/15 16:05:19;;;;;;;4.82;2.67;;;;;;;19.35;40.81;102070.47;5258165;28;20040;-75
2022/03/15 16:07:51;;;;;;;6.47;3.20;;;;;;;21.87;35.25;102080.53;5256273;28;20029;-73
2022/03/15 16:10:23;;;;;;;6.25;3.70;;;;;;;23.84;32.53;102077.28;5257202;28;20033;-82
2022/03/15 16:12:54;;;;;;;6.50;2.50;;;;;;;23.52;31.05;102079.66;5239035;28;20028;-73
2022/03/15 16:15:26;;;;;;;10.03;7.27;;;;;;;23.27;31.77;102078.13;5257492;28;20032;-75
2022/03/15 16:17:57;;;;;;;5.05;2.15;;;;;;;22.78;31.60;102082.94;5258290;28;20400;-75
2022/03/15 16:20:29;;;;;;;8.20;3.35;;;;;;;21.56;32.76;102081.72;5258053;28;20091;-75
2022/03/15 16:23:04;;;;;;;7.63;2.57;;;;;;;20.57;34.79;102086.06;5258195;28;20025;-73
2022/03/15 16:25:35;;;;;;;9.43;3.33;;;;;;;19.23;37.44;102081.41;5257983;28;20491;-75
2022/03/15 16:28:07;;;;;;;10.67;4.00;;;;;;;18.11;39.13;102078.13;5257077;28;20033;-77
2022/03/15 16:30:39;;;;;;;6.33;3.50;;;;;;;17.16;41.97;102085.41;5240500;28;20036;-75
2022/03/15 16:33:10;;;;;;;9.07;3.75;;;;;;;15.90;44.83;102078.69;5257658;28;20479;-78
2022/03/15 16:35:42;;;;;;;7.47;3.90;;;;;;;15.37;47.34;102088.13;5257701;28;20033;-74
2022/03/15 16:38:13;;;;;;;11.10;5.30;;;;;;;14.97;47.88;102085.94;5257919;28;20033;-75
2022/03/15 16:40:45;;;;;;;11.20;7.93;;;;;;;14.17;50.34;102077.00;5257836;28;20341;-73
2022/03/15 16:43:17;;;;;;;11.40;8.80;;;;;;;13.95;51.73;102082.38;5257222;28;20526;-78
2022/03/15 16:45:49;;;;;;;7.97;3.72;;;;;;;13.75;51.95;102082.50;5257883;28;20037;-75
2022/03/15 16:48:20;;;;;;;6.23;4.63;;;;;;;13.27;53.91;102084.41;5238421;28;20041;-75
2022/03/15 16:50:52;;;;;;;8.63;4.50;;;;;;;13.24;54.13;102081.81;5256903;28;20099;-74
2022/03/15 16:53:23;;;;;;;11.13;4.50;;;;;;;13.06;54.99;102082.72;5256628;28;20040;-73
2022/03/15 16:55:54;;;;;;;11.53;4.90;;;;;;;12.85;55.70;102076.66;5256774;28;20545;-77
2022/03/15 17:01:16;;;;;;;14.05;5.00;;;;;;;12.33;57.88;102088.00;5256593;28;20380;-76
2022/03/15 17:06:37;;;;;;;9.70;4.95;;;;;;;12.01;59.61;102095.78;5256921;28;20028;-76
2022/03/15 17:09:09;;;;;;;9.97;4.37;;;;;;;11.82;59.58;102093.09;5259990;28;20544;-75
2022/03/15 17:11:40;;;;;;;15.07;5.28;;;;;;;11.58;60.24;102096.50;5258865;28;20028;-77
2022/03/15 17:14:12;;;;;;;11.73;4.13;;;;;;;11.56;61.78;102098.25;5260326;28;20027;-75
2022/03/15 17:16:44;;;;;;;9.00;4.53;;;;;;;11.35;61.75;102098.13;5258402;28;20025;-75
2022/03/15 17:19:16;;;;;;;;;;;;;;;11.43;58.76;102102.53;5258829;28;20029;-79
2022/03/15 17:21:47;;;;;;;11.55;5.22;;;;;;;11.10;62.49;102103.22;5257904;28;19929;-77
2022/03/15 17:24:19;;;;;;;12.90;4.50;;;;;;;10.91;63.01;102112.66;5257225;28;20142;-75